createdAt,value
2023-09-27T00:00:09.343Z,17.20
2023-09-27T00:02:36.785Z,17.25
2023-09-27T00:05:08.266Z,17.15
2023-09-27T00:07:36.422Z,17.20
2023-09-27T00:10:07.174Z,16.93
2023-09-27T00:12:34.322Z,17.20
2023-09-27T00:15:04.152Z,17.08
2023-09-27T00:17:33.948Z,17.09
2023-09-27T00:20:06.515Z,17.02
2023-09-27T00:22:33.886Z,17.17
2023-09-27T00:25:05.912Z,17.16
2023-09-27T00:27:33.427Z,17.21
2023-09-27T00:30:00.786Z,17.08
2023-09-27T00:32:27.764Z,17.19
2023-09-27T00:34:54.517Z,17.15
2023-09-27T00:37:26.216Z,17.20
2023-09-27T00:39:52.969Z,17.19
2023-09-27T00:42:19.809Z,17.14
2023-09-27T00:44:46.812Z,16.95
2023-09-27T00:47:15.318Z,17.10
2023-09-27T00:49:42.113Z,17.12
2023-09-27T00:52:09.532Z,17.13
2023-09-27T00:54:36.797Z,17.10
2023-09-27T00:57:07.046Z,17.01
2023-09-27T00:59:34.675Z,17.06
2023-09-27T01:02:01.516Z,17.00
2023-09-27T01:04:28.536Z,17.09
2023-09-27T01:06:57.617Z,17.06
2023-09-27T01:09:24.619Z,17.06
2023-09-27T01:11:51.662Z,16.95
2023-09-27T01:14:18.509Z,17.00
2023-09-27T01:16:45.250Z,16.87
2023-09-27T01:19:12.102Z,16.90
2023-09-27T01:21:38.828Z,17.02
2023-09-27T01:24:07.720Z,16.83
2023-09-27T01:26:38.071Z,16.99
2023-09-27T01:29:09.671Z,16.97
2023-09-27T01:31:38.659Z,16.94
2023-09-27T01:34:05.520Z,16.81
2023-09-27T01:36:34.533Z,16.87
2023-09-27T01:39:01.223Z,16.45
2023-09-27T01:41:27.951Z,16.87
2023-09-27T01:43:54.850Z,16.82
2023-09-27T01:46:21.566Z,16.80
2023-09-27T01:48:49.555Z,16.72
2023-09-27T01:51:18.605Z,16.74
2023-09-27T01:53:45.659Z,16.70
2023-09-27T01:56:12.410Z,16.66
2023-09-27T01:58:39.140Z,16.61
2023-09-27T02:01:06.028Z,16.55
2023-09-27T02:03:33.042Z,16.53
2023-09-27T02:05:59.909Z,16.51
2023-09-27T02:08:29.152Z,16.42
2023-09-27T02:10:55.932Z,16.47
2023-09-27T02:13:22.719Z,16.37
2023-09-27T02:15:49.539Z,16.07
2023-09-27T02:18:16.333Z,16.49
2023-09-27T02:20:43.080Z,16.50
2023-09-27T02:23:11.894Z,16.54
2023-09-27T02:25:38.824Z,16.55
2023-09-27T02:28:06.080Z,16.52
2023-09-27T02:30:33.643Z,16.54
2023-09-27T02:33:00.427Z,16.50
2023-09-27T02:35:27.270Z,16.60
2023-09-27T02:37:54.217Z,16.51
2023-09-27T02:40:23.253Z,16.61
2023-09-27T02:42:50.032Z,16.62
2023-09-27T02:45:16.938Z,16.56
2023-09-27T02:47:47.899Z,16.59
2023-09-27T02:50:16.333Z,16.60
2023-09-27T02:52:45.260Z,16.57
2023-09-27T02:55:12.467Z,16.55
2023-09-27T02:57:39.602Z,16.53
2023-09-27T03:00:10.013Z,16.52
2023-09-27T03:02:38.405Z,16.49
2023-09-27T03:05:09.089Z,16.45
2023-09-27T03:07:36.357Z,16.42
2023-09-27T03:10:10.008Z,16.24
2023-09-27T03:12:36.841Z,16.22
2023-09-27T03:15:04.419Z,16.36
2023-09-27T03:17:33.482Z,16.32
2023-09-27T03:20:00.452Z,16.28
2023-09-27T03:22:30.007Z,16.14
2023-09-27T03:24:56.750Z,16.30
2023-09-27T03:27:23.438Z,16.28
2023-09-27T03:29:50.234Z,16.27
2023-09-27T03:32:16.976Z,16.25
2023-09-27T03:34:43.728Z,16.24
2023-09-27T03:37:12.543Z,16.19
2023-09-27T03:39:39.285Z,16.25
2023-09-27T03:42:06.156Z,16.30
2023-09-27T03:44:33.050Z,16.30
2023-09-27T03:46:59.981Z,16.31
2023-09-27T03:49:27.142Z,16.32
2023-09-27T03:51:58.636Z,16.31
2023-09-27T03:54:25.309Z,16.22
2023-09-27T03:56:52.400Z,16.29
2023-09-27T03:59:19.574Z,16.28
2023-09-27T04:01:48.695Z,16.13
2023-09-27T04:04:18.203Z,16.30
2023-09-27T04:06:48.003Z,16.28
2023-09-27T04:09:14.709Z,16.32
2023-09-27T04:11:41.468Z,16.32
2023-09-27T04:14:08.671Z,16.33
2023-09-27T04:16:35.441Z,16.29
2023-09-27T04:19:02.170Z,16.19
2023-09-27T04:21:29.966Z,16.35
2023-09-27T04:23:57.946Z,16.36
2023-09-27T04:26:28.093Z,16.40
2023-09-27T04:28:55.211Z,16.35
2023-09-27T04:31:25.199Z,16.44
2023-09-27T04:33:52.701Z,16.45
2023-09-27T04:36:22.093Z,16.46
2023-09-27T04:38:50.506Z,16.42
2023-09-27T04:41:19.134Z,16.46
2023-09-27T04:43:48.142Z,16.49
2023-09-27T04:46:15.683Z,16.51
2023-09-27T04:48:42.415Z,16.54
2023-09-27T04:51:09.993Z,16.25
2023-09-27T04:53:39.913Z,16.54
2023-09-27T04:56:07.863Z,16.58
2023-09-27T04:58:37.705Z,16.55
2023-09-27T05:01:07.607Z,16.58
2023-09-27T05:03:35.048Z,16.51
2023-09-27T05:06:02.057Z,16.47
2023-09-27T05:08:28.929Z,16.52
2023-09-27T05:10:57.546Z,16.52
2023-09-27T05:13:24.491Z,16.53
2023-09-27T05:15:54.040Z,16.52
2023-09-27T05:18:24.005Z,16.49
2023-09-27T05:20:51.019Z,16.49
2023-09-27T05:23:20.084Z,16.46
2023-09-27T05:25:47.774Z,16.46
2023-09-27T05:28:14.506Z,16.22
2023-09-27T05:30:43.201Z,16.43
2023-09-27T05:33:09.949Z,16.44
2023-09-27T05:35:36.769Z,16.45
2023-09-27T05:38:04.570Z,16.43
2023-09-27T05:40:32.595Z,16.41
2023-09-27T05:43:00.701Z,16.41
2023-09-27T05:45:31.485Z,16.47
2023-09-27T05:48:00.666Z,16.43
2023-09-27T05:50:27.407Z,16.12
2023-09-27T05:52:54.148Z,16.12
2023-09-27T05:55:21.375Z,16.56
2023-09-27T05:57:48.050Z,16.69
2023-09-27T06:00:27.576Z,16.74
2023-09-27T06:02:54.685Z,16.37
2023-09-27T06:05:22.010Z,16.74
2023-09-27T06:07:49.798Z,16.76
2023-09-27T06:10:17.553Z,16.87
2023-09-27T06:12:44.418Z,16.92
2023-09-27T06:15:12.049Z,16.95
2023-09-27T06:17:41.459Z,16.98
2023-09-27T06:20:09.976Z,17.00
2023-09-27T06:22:36.757Z,16.93
2023-09-27T06:25:03.917Z,17.07
2023-09-27T06:27:30.612Z,17.02
2023-09-27T06:30:00.446Z,17.13
2023-09-27T06:32:29.335Z,17.21
2023-09-27T06:34:56.591Z,17.30
2023-09-27T06:37:25.341Z,17.39
2023-09-27T06:39:52.105Z,16.89
2023-09-27T06:42:20.533Z,17.53
2023-09-27T06:44:47.408Z,17.59
2023-09-27T06:47:16.504Z,17.65
2023-09-27T06:49:43.247Z,17.62
2023-09-27T06:52:09.966Z,17.72
2023-09-27T06:54:36.684Z,17.81
2023-09-27T06:57:06.644Z,17.86
2023-09-27T06:59:36.051Z,17.91
2023-09-27T07:02:05.302Z,17.80
2023-09-27T07:04:32.019Z,18.07
2023-09-27T07:06:58.928Z,18.13
2023-09-27T07:09:25.710Z,17.47
2023-09-27T07:11:52.389Z,18.24
2023-09-27T07:14:21.271Z,18.28
2023-09-27T07:17:00.794Z,18.26
2023-09-27T07:19:32.811Z,18.41
2023-09-27T07:22:02.531Z,18.43
2023-09-27T07:24:31.635Z,18.47
2023-09-27T07:27:00.903Z,18.52
2023-09-27T07:29:28.680Z,18.46
2023-09-27T07:31:56.075Z,18.42
2023-09-27T07:34:22.779Z,18.64
2023-09-27T07:36:49.541Z,18.68
2023-09-27T07:39:17.112Z,18.61
2023-09-27T07:41:48.804Z,18.59
2023-09-27T07:44:19.308Z,18.78
2023-09-27T07:46:46.091Z,18.93
2023-09-27T07:49:13.007Z,18.99
2023-09-27T07:51:39.809Z,18.94
2023-09-27T07:54:09.666Z,19.14
2023-09-27T07:56:41.640Z,19.15
2023-09-27T07:59:08.490Z,19.19
2023-09-27T08:01:35.392Z,19.27
2023-09-27T08:04:11.935Z,19.26
2023-09-27T08:06:39.891Z,19.29
2023-09-27T08:09:20.381Z,19.60
2023-09-27T08:11:56.981Z,19.72
2023-09-27T08:14:23.777Z,19.73
2023-09-27T08:16:54.974Z,19.74
2023-09-27T08:19:25.872Z,19.72
2023-09-27T08:21:52.586Z,19.57
2023-09-27T08:24:21.384Z,19.66
2023-09-27T08:26:48.713Z,19.63
2023-09-27T08:29:19.799Z,19.59
2023-09-27T08:31:49.046Z,19.62
2023-09-27T08:34:16.238Z,19.70
2023-09-27T08:36:42.985Z,19.74
2023-09-27T08:39:10.847Z,19.72
2023-09-27T08:41:39.437Z,19.79
2023-09-27T08:44:07.200Z,19.76
2023-09-27T08:46:37.610Z,19.82
2023-09-27T08:49:10.001Z,19.81
2023-09-27T08:51:40.063Z,19.81
2023-09-27T08:54:06.841Z,19.94
2023-09-27T08:56:34.268Z,19.90
2023-09-27T08:59:04.823Z,20.08
2023-09-27T09:01:34.711Z,20.58
2023-09-27T09:04:01.672Z,20.72
2023-09-27T09:06:29.381Z,21.21
2023-09-27T09:08:58.440Z,21.79
2023-09-27T09:11:26.482Z,22.12
2023-09-27T09:14:06.565Z,22.31
2023-09-27T09:16:41.585Z,22.71
2023-09-27T09:21:57.118Z,23.62
2023-09-27T09:24:24.052Z,23.82
2023-09-27T09:27:06.013Z,23.77
2023-09-27T09:29:48.276Z,23.53
2023-09-27T09:32:19.706Z,23.51
2023-09-27T09:34:51.003Z,23.09
2023-09-27T09:37:20.757Z,23.20
2023-09-27T09:39:52.366Z,22.94
2023-09-27T09:42:37.768Z,22.67
2023-09-27T09:45:11.397Z,22.42
2023-09-27T09:47:43.294Z,22.20
2023-09-27T09:50:18.672Z,22.09
2023-09-27T09:52:59.885Z,22.08
2023-09-27T09:55:48.634Z,22.03
2023-09-27T09:58:43.955Z,21.96
2023-09-27T10:01:13.998Z,21.78
2023-09-27T10:03:49.496Z,21.90
2023-09-27T10:06:40.910Z,22.01
2023-09-27T10:09:17.830Z,22.05
2023-09-27T10:11:47.926Z,22.07
2023-09-27T10:14:17.985Z,22.09
2023-09-27T10:16:46.429Z,22.38
2023-09-27T10:19:14.425Z,22.38
2023-09-27T10:22:07.960Z,22.46
2023-09-27T10:24:38.749Z,22.25
2023-09-27T10:27:05.699Z,22.15
2023-09-27T10:29:32.611Z,22.17
2023-09-27T10:32:02.299Z,22.29
2023-09-27T10:34:28.981Z,22.40
2023-09-27T10:37:17.298Z,22.52
2023-09-27T10:40:20.834Z,22.68
2023-09-27T10:42:51.314Z,22.84
2023-09-27T10:45:18.724Z,22.83
2023-09-27T10:47:50.998Z,22.84
2023-09-27T10:50:28.995Z,22.49
2023-09-27T10:52:56.524Z,22.57
2023-09-27T10:55:23.646Z,22.75
2023-09-27T10:57:50.637Z,22.80
2023-09-27T11:00:19.544Z,22.87
2023-09-27T11:02:46.263Z,23.12
2023-09-27T11:05:13.280Z,23.17
2023-09-27T11:07:47.713Z,23.12
2023-09-27T11:10:34.307Z,22.97
2023-09-27T11:13:15.725Z,22.81
2023-09-27T11:15:43.349Z,22.68
2023-09-27T11:18:11.701Z,22.47
2023-09-27T11:20:41.509Z,22.37
2023-09-27T11:23:08.619Z,22.34
2023-09-27T11:25:39.257Z,22.32
2023-09-27T11:28:06.460Z,22.38
2023-09-27T11:30:36.238Z,22.50
2023-09-27T11:33:07.415Z,22.58
2023-09-27T11:35:34.990Z,22.18
2023-09-27T11:38:14.805Z,22.48
2023-09-27T11:40:44.778Z,22.41
2023-09-27T11:43:13.672Z,22.29
2023-09-27T11:45:43.993Z,22.15
2023-09-27T11:48:11.147Z,21.57
2023-09-27T11:50:38.856Z,21.77
2023-09-27T11:53:08.368Z,21.88
2023-09-27T11:55:37.603Z,21.64
2023-09-27T11:58:04.573Z,21.69
2023-09-27T12:00:31.484Z,21.44
2023-09-27T12:02:59.153Z,21.58
2023-09-27T12:05:27.233Z,21.53
2023-09-27T12:07:54.374Z,21.50
2023-09-27T12:10:21.272Z,21.48
2023-09-27T12:12:50.902Z,21.48
2023-09-27T12:15:19.943Z,21.43
2023-09-27T12:17:49.376Z,21.32
2023-09-27T12:20:31.543Z,21.50
2023-09-27T12:23:04.145Z,21.62
2023-09-27T12:25:30.884Z,21.61
2023-09-27T12:27:59.892Z,21.43
2023-09-27T12:30:26.607Z,21.49
2023-09-27T12:32:53.762Z,21.45
2023-09-27T12:35:25.319Z,21.41
2023-09-27T12:37:56.945Z,21.39
2023-09-27T12:40:25.942Z,21.44
2023-09-27T12:42:55.164Z,21.47
2023-09-27T12:45:21.933Z,21.72
2023-09-27T12:47:48.712Z,21.69
2023-09-27T12:50:27.936Z,21.62
2023-09-27T12:52:57.721Z,21.46
2023-09-27T12:55:26.634Z,21.45
2023-09-27T12:57:53.417Z,21.39
2023-09-27T13:00:20.701Z,21.26
2023-09-27T13:02:47.613Z,21.41
2023-09-27T13:05:14.506Z,21.38
2023-09-27T13:07:44.819Z,21.56
2023-09-27T13:10:13.895Z,21.53
2023-09-27T13:12:43.906Z,21.51
2023-09-27T13:15:11.720Z,21.50
2023-09-27T13:17:41.016Z,21.40
2023-09-27T13:20:11.792Z,21.39
2023-09-27T13:22:38.708Z,21.32
2023-09-27T13:25:13.215Z,21.07
2023-09-27T13:27:40.999Z,21.10
2023-09-27T13:30:11.315Z,21.00
2023-09-27T13:32:42.992Z,21.06
2023-09-27T13:35:09.690Z,21.04
2023-09-27T13:37:36.585Z,21.03
2023-09-27T13:40:14.166Z,20.92
2023-09-27T13:42:42.275Z,20.86
2023-09-27T13:45:13.487Z,20.88
2023-09-27T13:47:40.409Z,20.73
2023-09-27T13:50:07.910Z,20.74
2023-09-27T13:52:38.049Z,20.70
2023-09-27T13:55:07.410Z,20.68
2023-09-27T13:57:34.203Z,20.68
2023-09-27T14:00:00.987Z,20.60
2023-09-27T14:02:27.826Z,20.42
2023-09-27T14:04:55.125Z,20.54
2023-09-27T14:07:22.085Z,20.28
2023-09-27T14:09:50.949Z,20.51
2023-09-27T14:12:17.698Z,20.50
2023-09-27T14:14:47.158Z,20.37
2023-09-27T14:17:13.888Z,20.43
2023-09-27T14:19:43.982Z,20.23
2023-09-27T14:22:13.139Z,20.41
2023-09-27T14:24:39.798Z,20.25
2023-09-27T14:27:09.196Z,20.49
2023-09-27T14:29:36.423Z,20.55
2023-09-27T14:32:07.415Z,20.57
2023-09-27T14:37:08.172Z,20.69
2023-09-27T14:39:39.945Z,20.51
2023-09-27T14:42:07.363Z,20.69
2023-09-27T14:44:33.977Z,20.55
2023-09-27T14:47:00.809Z,20.74
2023-09-27T14:49:31.238Z,20.67
2023-09-27T14:51:57.953Z,20.72
2023-09-27T14:54:24.677Z,20.63
2023-09-27T14:56:53.964Z,20.64
2023-09-27T14:59:22.864Z,20.61
2023-09-27T15:01:49.629Z,20.43
2023-09-27T15:04:19.174Z,20.46
2023-09-27T15:06:50.591Z,20.11
2023-09-27T15:09:19.499Z,20.53
2023-09-27T15:11:48.406Z,20.46
2023-09-27T15:14:20.353Z,20.42
2023-09-27T15:16:47.182Z,20.50
2023-09-27T15:19:16.451Z,20.43
2023-09-27T15:21:43.255Z,20.00
2023-09-27T15:24:11.126Z,20.38
2023-09-27T15:26:37.820Z,20.28
2023-09-27T15:29:04.442Z,20.36
2023-09-27T15:31:31.456Z,20.35
2023-09-27T15:33:58.374Z,20.32
2023-09-27T15:36:28.379Z,20.33
2023-09-27T15:38:55.023Z,20.40
2023-09-27T15:41:21.814Z,20.43
2023-09-27T15:43:50.974Z,20.45
2023-09-27T15:46:18.166Z,20.37
2023-09-27T15:48:45.017Z,20.50
2023-09-27T15:51:16.841Z,20.51
2023-09-27T15:53:43.671Z,20.26
2023-09-27T15:56:13.135Z,20.52
2023-09-27T15:58:40.075Z,20.75
2023-09-27T16:01:08.007Z,20.75
2023-09-27T16:03:35.850Z,20.83
2023-09-27T16:06:05.300Z,20.85
2023-09-27T16:08:32.556Z,20.81
2023-09-27T16:11:01.818Z,20.92
2023-09-27T16:13:31.493Z,20.90
2023-09-27T16:16:00.843Z,20.94
2023-09-27T16:18:27.696Z,20.93
2023-09-27T16:20:57.393Z,20.96
2023-09-27T16:23:24.149Z,20.73
2023-09-27T16:25:51.529Z,21.08
2023-09-27T16:28:19.247Z,21.08
2023-09-27T16:30:46.849Z,21.05
2023-09-27T16:33:15.971Z,21.12
2023-09-27T16:35:43.053Z,21.14
2023-09-27T16:38:12.731Z,21.15
2023-09-27T16:40:47.178Z,21.17
2023-09-27T16:43:13.874Z,21.05
2023-09-27T16:45:43.802Z,21.23
2023-09-27T16:48:10.656Z,21.16
2023-09-27T16:50:37.345Z,21.23
2023-09-27T16:53:05.653Z,21.05
2023-09-27T16:55:38.292Z,21.26
2023-09-27T16:58:06.314Z,21.26
2023-09-27T17:00:33.268Z,21.25
2023-09-27T17:03:04.851Z,21.17
2023-09-27T17:05:31.854Z,21.26
2023-09-27T17:07:58.988Z,21.26
2023-09-27T17:10:25.942Z,21.26
2023-09-27T17:12:52.705Z,21.25
2023-09-27T17:15:20.880Z,21.20
2023-09-27T17:17:47.958Z,21.20
2023-09-27T17:20:14.889Z,21.17
2023-09-27T17:22:44.436Z,20.92
2023-09-27T17:25:12.229Z,21.07
2023-09-27T17:27:39.010Z,20.99
2023-09-27T17:30:08.983Z,20.65
2023-09-27T17:32:36.900Z,20.74
2023-09-27T17:35:06.808Z,20.83
2023-09-27T17:37:33.713Z,20.88
2023-09-27T17:40:01.936Z,20.72
2023-09-27T17:42:28.846Z,20.73
2023-09-27T17:44:57.999Z,20.72
2023-09-27T17:47:24.698Z,20.71
2023-09-27T17:49:51.428Z,20.70
2023-09-27T17:52:20.284Z,20.55
2023-09-27T17:54:49.470Z,20.62
2023-09-27T17:57:18.601Z,20.64
2023-09-27T17:59:46.646Z,20.65
2023-09-27T18:02:13.760Z,20.61
2023-09-27T18:04:40.910Z,20.56
2023-09-27T18:07:07.542Z,20.65
2023-09-27T18:09:37.686Z,20.47
2023-09-27T18:12:05.246Z,20.51
2023-09-27T18:14:31.965Z,20.49
2023-09-27T18:17:00.846Z,20.48
2023-09-27T18:19:27.589Z,20.38
2023-09-27T18:21:54.393Z,20.26
2023-09-27T18:24:21.114Z,20.14
2023-09-27T18:26:47.763Z,20.08
2023-09-27T18:29:14.684Z,19.92
2023-09-27T18:31:43.295Z,19.73
2023-09-27T18:34:10.401Z,19.68
2023-09-27T18:36:37.052Z,19.55
2023-09-27T18:39:06.171Z,19.45
2023-09-27T18:41:35.178Z,19.64
2023-09-27T18:44:06.809Z,19.53
2023-09-27T18:46:36.654Z,19.39
2023-09-27T18:49:03.827Z,19.48
2023-09-27T18:51:30.543Z,19.45
2023-09-27T18:53:59.442Z,19.42
2023-09-27T18:56:26.625Z,19.38
2023-09-27T18:58:55.895Z,19.22
2023-09-27T19:01:24.975Z,19.18
2023-09-27T19:03:52.440Z,19.17
2023-09-27T19:06:19.825Z,19.16
2023-09-27T19:08:47.173Z,19.01
2023-09-27T19:11:21.137Z,19.07
2023-09-27T19:13:48.513Z,19.05
2023-09-27T19:16:15.310Z,18.90
2023-09-27T19:18:43.674Z,19.02
2023-09-27T19:21:11.574Z,19.01
2023-09-27T19:23:40.371Z,18.92
2023-09-27T19:26:09.175Z,18.78
2023-09-27T19:28:37.462Z,18.86
2023-09-27T19:31:04.590Z,18.89
2023-09-27T19:33:31.550Z,18.84
2023-09-27T19:36:01.142Z,18.80
2023-09-27T19:38:29.947Z,18.76
2023-09-27T19:40:56.744Z,18.73
2023-09-27T19:43:24.880Z,18.68
2023-09-27T19:45:54.600Z,18.63
2023-09-27T19:48:26.745Z,18.52
2023-09-27T19:50:53.340Z,18.50
2023-09-27T19:53:20.100Z,18.52
2023-09-27T19:55:47.702Z,18.47
2023-09-27T19:58:17.518Z,18.30
2023-09-27T20:00:46.199Z,18.28
2023-09-27T20:03:14.054Z,18.37
2023-09-27T20:05:40.797Z,18.33
2023-09-27T20:08:07.792Z,18.21
2023-09-27T20:10:37.847Z,18.16
2023-09-27T20:13:07.719Z,17.92
2023-09-27T20:15:37.417Z,18.25
2023-09-27T20:18:04.752Z,18.21
2023-09-27T20:20:31.744Z,18.16
2023-09-27T20:23:01.074Z,18.10
2023-09-27T20:25:30.103Z,18.19
2023-09-27T20:28:00.065Z,18.19
2023-09-27T20:30:26.811Z,18.19
2023-09-27T20:32:54.232Z,18.14
2023-09-27T20:35:24.870Z,18.08
2023-09-27T20:37:51.783Z,18.14
2023-09-27T20:40:18.744Z,18.13
2023-09-27T20:42:55.027Z,18.09
2023-09-27T20:45:22.354Z,18.07
2023-09-27T20:47:52.749Z,18.05
2023-09-27T20:50:19.565Z,18.03
2023-09-27T20:52:46.201Z,18.01
2023-09-27T20:55:12.941Z,17.97
2023-09-27T20:57:40.359Z,17.86
2023-09-27T21:00:13.382Z,17.99
2023-09-27T21:02:42.839Z,17.90
2023-09-27T21:05:09.631Z,17.91
2023-09-27T21:07:37.419Z,17.61
2023-09-27T21:10:05.054Z,17.26
2023-09-27T21:12:31.698Z,17.94
2023-09-27T21:14:58.522Z,17.85
2023-09-27T21:17:28.261Z,17.88
2023-09-27T21:19:57.809Z,17.86
2023-09-27T21:22:26.689Z,17.85
2023-09-27T21:24:55.815Z,17.82
2023-09-27T21:27:22.442Z,17.81
2023-09-27T21:29:51.476Z,17.51
2023-09-27T21:32:20.489Z,17.51
2023-09-27T21:34:49.155Z,17.76
2023-09-27T21:37:16.429Z,17.75
2023-09-27T21:39:43.122Z,17.75
2023-09-27T21:42:10.097Z,17.64
2023-09-27T21:44:38.988Z,17.78
2023-09-27T21:47:05.614Z,17.68
2023-09-27T21:49:34.512Z,17.64
2023-09-27T21:52:01.501Z,17.78
2023-09-27T21:54:28.218Z,17.88
2023-09-27T21:56:57.315Z,17.85
2023-09-27T21:59:23.978Z,17.92
2023-09-27T22:01:50.661Z,17.89
2023-09-27T22:04:17.606Z,17.97
2023-09-27T22:06:46.496Z,17.57
2023-09-27T22:09:18.591Z,18.03
2023-09-27T22:11:46.215Z,17.98
2023-09-27T22:14:13.006Z,18.03
2023-09-27T22:16:39.921Z,18.08
2023-09-27T22:19:13.256Z,17.89
2023-09-27T22:21:44.156Z,17.95
2023-09-27T22:24:13.886Z,17.80
2023-09-27T22:26:42.241Z,18.01
2023-09-27T22:29:11.406Z,17.90
2023-09-27T22:31:39.685Z,17.98
2023-09-27T22:34:24.069Z,17.95
2023-09-27T22:36:52.288Z,17.88
2023-09-27T22:39:20.549Z,17.90
2023-09-27T22:41:49.782Z,17.93
2023-09-27T22:44:20.459Z,17.92
2023-09-27T22:46:48.847Z,17.77
2023-09-27T22:49:20.663Z,17.89
2023-09-27T22:51:50.857Z,17.53
2023-09-27T22:54:20.321Z,17.87
2023-09-27T22:56:48.878Z,17.87
2023-09-27T22:59:22.691Z,17.77
2023-09-27T23:01:56.093Z,17.86
2023-09-27T23:04:24.319Z,17.85
2023-09-27T23:07:02.856Z,17.70
2023-09-27T23:09:36.003Z,17.82
2023-09-27T23:12:18.762Z,17.80
2023-09-27T23:15:04.500Z,17.73
2023-09-27T23:17:32.092Z,17.78
2023-09-27T23:20:01.858Z,17.78
2023-09-27T23:22:48.634Z,17.73
2023-09-27T23:25:35.461Z,17.78
2023-09-27T23:28:04.372Z,17.77
2023-09-27T23:30:31.161Z,17.82
2023-09-27T23:33:03.188Z,17.77
2023-09-27T23:35:32.968Z,17.85
2023-09-27T23:38:11.144Z,17.87
2023-09-27T23:40:42.927Z,17.49
2023-09-27T23:43:17.379Z,17.87
2023-09-27T23:45:46.745Z,17.89
2023-09-27T23:48:13.718Z,17.72
2023-09-27T23:50:41.713Z,17.75
2023-09-27T23:53:08.377Z,17.89
2023-09-27T23:55:42.452Z,17.89
2023-09-27T23:58:13.767Z,17.79
